Rockford, Illinois
Current Conditions -  °F | °C
As of 1:54 PM on Tuesday 21 Oct 2014 (Local Time) from KRFD Reporting Station
Overcast Overcast  
Wind Chill: 53°   Ceiling: 3700
Heat Index: 53°   Visibility: 10mi
Dew Point: 38°   Wind: 12mph
Humidity: 57%   Direction: 360°N
Pressure: 30.22"   Gusts: NA
Location:  42.27°N, 89.08°W
Report Text: KRFD 211854Z 36010KT 10SM OVC037 12/03 A3022 RMK AO2 SLP236 T01170033
Loading
Personal Weather Stations






























Interactive Weather Map
Tropical Storm Tracking
New forecast layout! Learn more

10-Day Weather Forecast

Advertisements
Track Severe Weather on mobile